createdAt,value
2023-05-17T00:00:03.224Z,100675.50
2023-05-17T00:02:53.340Z,100679.21
2023-05-17T00:05:21.789Z,100679.47
2023-05-17T00:07:50.470Z,100683.68
2023-05-17T00:10:18.852Z,100684.58
2023-05-17T00:12:47.130Z,100683.40
2023-05-17T00:15:15.399Z,100686.56
2023-05-17T00:17:43.766Z,100690.80
2023-05-17T00:20:12.771Z,100685.73
2023-05-17T00:22:41.244Z,100690.45
2023-05-17T00:25:09.631Z,100688.55
2023-05-17T00:27:37.798Z,100691.38
2023-05-17T00:30:07.761Z,100689.67
2023-05-17T00:32:38.516Z,100688.83
2023-05-17T00:35:07.321Z,100689.94
2023-05-17T00:37:35.955Z,100691.89
2023-05-17T00:40:06.449Z,100690.56
2023-05-17T00:42:34.716Z,100690.64
2023-05-17T00:45:03.093Z,100698.50
2023-05-17T00:47:31.534Z,100699.38
2023-05-17T00:49:59.853Z,100698.35
2023-05-17T00:52:28.222Z,100697.67
2023-05-17T00:54:56.603Z,100698.38
2023-05-17T00:57:24.979Z,100698.02
2023-05-17T00:59:53.970Z,100703.35
2023-05-17T01:02:22.759Z,100705.14
2023-05-17T01:04:51.391Z,100708.35
2023-05-17T01:07:19.817Z,100706.69
2023-05-17T01:09:48.818Z,100708.30
2023-05-17T01:12:42.374Z,100707.84
2023-05-17T01:15:37.998Z,100707.77
2023-05-17T01:18:18.570Z,100710.45
2023-05-17T01:20:49.486Z,100710.19
2023-05-17T01:23:36.402Z,100710.47
2023-05-17T01:26:19.321Z,100710.90
2023-05-17T01:28:50.220Z,100707.70
2023-05-17T01:31:19.147Z,100707.45
2023-05-17T01:33:48.026Z,100709.79
2023-05-17T01:36:16.408Z,100709.68
2023-05-17T01:38:44.697Z,100712.52
2023-05-17T01:41:38.067Z,100714.32
2023-05-17T01:44:06.318Z,100710.40
2023-05-17T01:46:57.351Z,100712.54
2023-05-17T01:49:30.811Z,100718.36
2023-05-17T01:52:32.176Z,100722.28
2023-05-17T01:55:15.097Z,100726.20
2023-05-17T01:57:44.803Z,100729.92
2023-05-17T02:00:13.998Z,100734.72
2023-05-17T02:02:47.522Z,100741.77
2023-05-17T02:05:15.911Z,100751.05
2023-05-17T02:07:44.250Z,100753.41
2023-05-17T02:10:13.154Z,100754.34
2023-05-17T02:12:44.189Z,100760.68
2023-05-17T02:15:16.786Z,100766.33
2023-05-17T02:17:45.228Z,100764.81
2023-05-17T02:20:14.025Z,100768.70
2023-05-17T02:22:42.297Z,100772.59
2023-05-17T02:25:10.679Z,100776.29
2023-05-17T02:27:41.148Z,100774.28
2023-05-17T02:30:10.401Z,100778.02
2023-05-17T02:32:39.278Z,100773.04
2023-05-17T02:35:09.444Z,100773.31
2023-05-17T02:37:37.688Z,100766.73
2023-05-17T02:40:10.053Z,100764.71
2023-05-17T02:42:38.553Z,100770.19
2023-05-17T02:45:07.664Z,100770.83
2023-05-17T02:47:35.997Z,100778.41
2023-05-17T02:50:05.211Z,100777.98
2023-05-17T02:52:34.090Z,100777.90
2023-05-17T02:55:02.769Z,100772.75
2023-05-17T02:57:31.052Z,100768.98
2023-05-17T02:59:59.419Z,100776.04
2023-05-17T03:02:29.125Z,100782.39
2023-05-17T03:04:57.761Z,100782.13
2023-05-17T03:07:26.188Z,100779.77
2023-05-17T03:09:55.285Z,100781.56
2023-05-17T03:12:24.684Z,100782.34
2023-05-17T03:26:28.973Z,100795.00
2023-05-17T03:28:57.346Z,100795.71
2023-05-17T03:31:26.234Z,100805.71
2023-05-17T03:33:54.852Z,100810.14
2023-05-17T03:36:23.807Z,100815.15
2023-05-17T03:38:52.298Z,100820.16
2023-05-17T03:41:21.279Z,100821.31
2023-05-17T03:43:49.963Z,100821.98
2023-05-17T03:46:18.651Z,100825.22
2023-05-17T03:48:48.716Z,100828.59
2023-05-17T03:51:18.369Z,100831.92
2023-05-17T03:53:46.647Z,100835.45
2023-05-17T03:56:16.149Z,100831.85
2023-05-17T03:58:44.533Z,100831.17
2023-05-17T04:01:12.908Z,100836.23
2023-05-17T04:03:41.289Z,100840.21
2023-05-17T04:06:10.479Z,100841.24
2023-05-17T04:08:39.789Z,100844.02
2023-05-17T04:11:13.203Z,100845.40
2023-05-17T04:13:43.015Z,100850.23
2023-05-17T04:16:11.462Z,100851.23
2023-05-17T04:18:42.182Z,100859.02
2023-05-17T04:21:11.091Z,100857.41
2023-05-17T04:23:40.587Z,100854.95
2023-05-17T04:26:10.757Z,100855.46
2023-05-17T04:28:41.440Z,100853.88
2023-05-17T04:31:10.840Z,100860.45
2023-05-17T04:33:39.537Z,100859.51
2023-05-17T04:36:08.824Z,100861.52
2023-05-17T04:38:37.405Z,100864.78
2023-05-17T04:41:07.626Z,100867.38
2023-05-17T04:43:38.508Z,100869.23
2023-05-17T04:46:10.025Z,100868.50
2023-05-17T04:48:39.488Z,100870.91
2023-05-17T04:51:08.312Z,100875.05
2023-05-17T04:53:36.782Z,100876.05
2023-05-17T04:56:09.374Z,100879.48
2023-05-17T04:58:37.938Z,100881.34
2023-05-17T05:01:06.676Z,100882.56
2023-05-17T05:03:35.219Z,100880.42
2023-05-17T05:06:04.714Z,100886.24
2023-05-17T05:08:33.900Z,100887.91
2023-05-17T05:11:02.393Z,100895.34
2023-05-17T05:13:32.215Z,100894.59
2023-05-17T05:16:00.797Z,100897.27
2023-05-17T05:18:30.234Z,100903.24
2023-05-17T05:20:59.682Z,100906.78
2023-05-17T05:23:28.468Z,100911.36
2023-05-17T05:25:56.896Z,100911.08
2023-05-17T05:28:25.525Z,100910.75
2023-05-17T05:30:59.429Z,100914.29
2023-05-17T05:33:28.934Z,100922.38
2023-05-17T05:35:57.973Z,100922.45
2023-05-17T05:38:29.073Z,100925.54
2023-05-17T05:40:57.551Z,100921.47
2023-05-17T05:43:25.822Z,100925.55
2023-05-17T05:45:54.204Z,100923.57
2023-05-17T05:48:22.963Z,100920.98
2023-05-17T05:50:51.366Z,100919.96
2023-05-17T05:53:20.031Z,100921.40
2023-05-17T05:55:56.518Z,100924.23
2023-05-17T05:58:25.249Z,100920.46
2023-05-17T06:00:53.782Z,100918.30
2023-05-17T06:03:22.014Z,100911.36
2023-05-17T06:05:50.904Z,100911.39
2023-05-17T06:08:19.428Z,100912.44
2023-05-17T06:10:48.217Z,100913.06
2023-05-17T06:13:16.450Z,100918.41
2023-05-17T06:15:44.920Z,100918.66
2023-05-17T06:18:13.523Z,100920.48
2023-05-17T06:20:42.545Z,100921.87
2023-05-17T06:23:11.024Z,100917.29
2023-05-17T06:25:40.425Z,100923.30
2023-05-17T06:28:09.522Z,100926.82
2023-05-17T06:30:38.000Z,100934.16
2023-05-17T06:33:06.412Z,100935.95
2023-05-17T06:35:51.756Z,100942.70
2023-05-17T06:38:24.223Z,100947.52
2023-05-17T06:40:56.177Z,100944.75
2023-05-17T06:43:24.570Z,100950.42
2023-05-17T06:45:53.181Z,100955.69
2023-05-17T06:48:21.534Z,100964.73
2023-05-17T06:50:50.209Z,100968.10
2023-05-17T06:53:18.474Z,100968.84
2023-05-17T06:55:46.749Z,100974.05
2023-05-17T06:58:15.227Z,100974.23
2023-05-17T07:00:43.424Z,100977.67
2023-05-17T07:03:11.973Z,100977.41
2023-05-17T07:05:40.990Z,100984.46
2023-05-17T07:08:09.348Z,100987.02
2023-05-17T07:10:37.538Z,100988.06
2023-05-17T07:13:05.906Z,100988.70
2023-05-17T07:15:34.408Z,100991.80
2023-05-17T07:18:03.389Z,100997.14
2023-05-17T07:20:32.160Z,100994.11
2023-05-17T07:23:01.302Z,100997.34
2023-05-17T07:25:30.151Z,100999.50
2023-05-17T07:27:58.624Z,101000.27
2023-05-17T07:30:27.056Z,100997.88
2023-05-17T07:32:55.433Z,101000.69
2023-05-17T07:35:24.169Z,100998.00
2023-05-17T07:37:52.662Z,101000.89
2023-05-17T07:40:22.262Z,100996.60
2023-05-17T07:42:50.929Z,100990.61
2023-05-17T07:45:19.622Z,100987.39
2023-05-17T07:47:48.368Z,100988.23
2023-05-17T07:50:16.990Z,100984.79
2023-05-17T07:52:45.267Z,100984.04
2023-05-17T07:55:16.037Z,100976.25
2023-05-17T07:57:45.606Z,100973.58
2023-05-17T08:00:14.655Z,100976.73
2023-05-17T08:02:43.125Z,100979.73
2023-05-17T08:05:11.760Z,100981.19
2023-05-17T08:07:40.034Z,100981.11
2023-05-17T08:10:09.038Z,100984.87
2023-05-17T08:12:37.299Z,100991.06
2023-05-17T08:15:06.724Z,101000.17
2023-05-17T08:17:35.053Z,100995.87
2023-05-17T08:20:03.363Z,100992.11
2023-05-17T08:22:31.728Z,100998.13
2023-05-17T08:25:00.004Z,101001.06
2023-05-17T08:27:31.346Z,101003.09
2023-05-17T08:30:00.149Z,100999.30
2023-05-17T08:32:28.650Z,101002.58
2023-05-17T08:34:58.336Z,101003.51
2023-05-17T08:37:26.602Z,101002.20
2023-05-17T08:39:54.993Z,101000.91
2023-05-17T08:42:26.834Z,101005.48
2023-05-17T08:44:55.625Z,101002.77
2023-05-17T08:47:30.020Z,101002.37
2023-05-17T08:50:05.185Z,101003.61
2023-05-17T08:52:36.305Z,101004.11
2023-05-17T08:55:06.306Z,101007.02
2023-05-17T08:57:38.703Z,101008.77
2023-05-17T09:00:17.011Z,101013.66
2023-05-17T09:02:45.367Z,101011.83
2023-05-17T09:05:16.751Z,101007.61
2023-05-17T09:07:45.211Z,101010.23
2023-05-17T09:10:13.897Z,101007.75
2023-05-17T09:12:42.584Z,101009.73
2023-05-17T09:15:21.074Z,101010.60
2023-05-17T09:17:57.760Z,101013.51
2023-05-17T09:20:35.535Z,101012.75
2023-05-17T09:23:05.371Z,101011.83
2023-05-17T09:25:34.163Z,101017.90
2023-05-17T09:28:07.906Z,101018.18
2023-05-17T09:30:40.236Z,101015.89
2023-05-17T09:33:09.793Z,101013.44
2023-05-17T09:35:39.088Z,101012.70
2023-05-17T09:38:09.341Z,101013.20
2023-05-17T09:40:44.149Z,101017.54
2023-05-17T09:43:13.595Z,101014.13
2023-05-17T09:45:42.069Z,101016.80
2023-05-17T09:48:15.263Z,101017.27
2023-05-17T09:50:48.665Z,101016.77
2023-05-17T09:53:27.473Z,101016.23
2023-05-17T09:55:58.852Z,101020.14
2023-05-17T09:58:29.274Z,101021.84
2023-05-17T10:01:02.096Z,101024.29
2023-05-17T10:03:33.586Z,101027.28
2023-05-17T10:06:06.598Z,101027.61
2023-05-17T10:08:35.454Z,101023.25
2023-05-17T10:11:08.345Z,101020.66
2023-05-17T10:13:44.913Z,101020.58
2023-05-17T10:16:13.616Z,101017.45
2023-05-17T10:18:42.321Z,101020.56
2023-05-17T10:21:11.063Z,101022.46
2023-05-17T10:23:40.066Z,101021.30
2023-05-17T10:26:08.943Z,101016.36
2023-05-17T10:28:37.736Z,101016.46
2023-05-17T10:31:07.441Z,101016.42
2023-05-17T10:33:36.337Z,101014.21
2023-05-17T10:36:06.780Z,101017.41
2023-05-17T10:38:41.626Z,101025.30
2023-05-17T10:41:15.383Z,101028.96
2023-05-17T10:43:44.184Z,101023.91
2023-05-17T10:46:16.969Z,101019.94
2023-05-17T10:48:45.666Z,101023.46
2023-05-17T10:51:14.029Z,101021.46
2023-05-17T10:54:04.318Z,101025.94
2023-05-17T10:56:33.909Z,101029.88
2023-05-17T10:59:27.018Z,101031.56
2023-05-17T11:02:01.088Z,101028.59
2023-05-17T11:04:36.888Z,101026.52
2023-05-17T11:07:22.388Z,101030.13
2023-05-17T11:09:53.758Z,101030.30
2023-05-17T11:12:40.729Z,101035.96
2023-05-17T11:15:11.098Z,101028.34
2023-05-17T11:17:47.004Z,101028.13
2023-05-17T11:20:16.973Z,101033.73
2023-05-17T11:22:59.132Z,101032.72
2023-05-17T11:25:36.259Z,101031.45
2023-05-17T11:28:24.954Z,101033.00
2023-05-17T11:31:01.098Z,101031.02
2023-05-17T11:33:40.554Z,101031.23
2023-05-17T11:36:16.730Z,101030.40
2023-05-17T11:38:46.565Z,101027.91
2023-05-17T11:43:53.666Z,101029.42
2023-05-17T11:46:23.260Z,101033.50
2023-05-17T11:48:53.350Z,101037.71
2023-05-17T11:51:24.938Z,101040.37
2023-05-17T11:53:57.405Z,101043.73
2023-05-17T11:56:39.475Z,101048.27
2023-05-17T11:59:11.177Z,101047.92
2023-05-17T12:01:44.572Z,101047.96
2023-05-17T12:04:13.821Z,101050.52
2023-05-17T12:06:42.807Z,101046.64
2023-05-17T12:09:13.675Z,101050.90
2023-05-17T12:11:42.772Z,101051.42
2023-05-17T12:14:15.139Z,101054.16
2023-05-17T12:16:45.057Z,101053.46
2023-05-17T12:19:21.315Z,101044.80
2023-05-17T12:21:50.007Z,101045.70
2023-05-17T12:24:18.786Z,101044.09
2023-05-17T12:26:47.879Z,101040.09
2023-05-17T12:29:22.531Z,101041.48
2023-05-17T12:31:53.058Z,101040.32
2023-05-17T12:34:22.427Z,101041.05
2023-05-17T12:36:51.625Z,101035.21
2023-05-17T12:39:24.223Z,101032.64
2023-05-17T12:41:53.417Z,101028.77
2023-05-17T12:44:22.113Z,101032.02
2023-05-17T12:46:57.956Z,101032.78
2023-05-17T12:49:27.149Z,101037.21
2023-05-17T12:51:55.507Z,101038.70
2023-05-17T12:54:30.369Z,101038.92
2023-05-17T12:56:58.726Z,101038.44
2023-05-17T12:59:29.211Z,101035.00
2023-05-17T13:01:58.352Z,101032.86
2023-05-17T13:04:34.427Z,101033.48
2023-05-17T13:07:05.044Z,101038.95
2023-05-17T13:09:34.695Z,101036.48
2023-05-17T13:12:07.411Z,101034.67
2023-05-17T13:14:46.278Z,101035.66
2023-05-17T13:17:35.130Z,101034.96
2023-05-17T13:20:05.330Z,101032.16
2023-05-17T13:22:34.919Z,101036.83
2023-05-17T13:25:03.808Z,101040.33
2023-05-17T13:27:31.990Z,101038.48
2023-05-17T13:30:00.362Z,101042.66
2023-05-17T13:32:29.677Z,101045.88
2023-05-17T13:34:58.030Z,101047.09
2023-05-17T13:37:26.405Z,101052.11
2023-05-17T13:39:56.428Z,101051.17
2023-05-17T13:42:24.843Z,101051.91
2023-05-17T13:44:53.297Z,101060.36
2023-05-17T13:47:21.696Z,101062.88
2023-05-17T13:49:50.243Z,101057.27
2023-05-17T13:52:18.920Z,101051.90
2023-05-17T13:54:47.298Z,101047.91
2023-05-17T13:57:15.574Z,101052.30
2023-05-17T13:59:45.944Z,101059.69
2023-05-17T14:02:14.587Z,101073.27
2023-05-17T14:04:44.085Z,101081.30
2023-05-17T14:07:12.875Z,101083.08
2023-05-17T14:09:41.348Z,101086.08
2023-05-17T14:12:09.730Z,101080.91
2023-05-17T14:14:38.104Z,101077.33
2023-05-17T14:17:06.583Z,101080.05
2023-05-17T14:19:34.938Z,101082.61
2023-05-17T14:22:03.442Z,101085.05
2023-05-17T14:24:32.227Z,101089.86
2023-05-17T14:27:02.756Z,101091.29
2023-05-17T14:29:32.155Z,101098.43
2023-05-17T14:32:00.327Z,101104.54
2023-05-17T14:34:28.757Z,101099.89
2023-05-17T14:36:57.365Z,101096.63
2023-05-17T14:39:25.663Z,101097.16
2023-05-17T14:41:54.002Z,101100.17
2023-05-17T14:44:22.425Z,101103.95
2023-05-17T14:46:50.799Z,101107.56
2023-05-17T14:49:19.112Z,101115.61
2023-05-17T14:51:47.548Z,101120.81
2023-05-17T14:54:17.047Z,101124.45
2023-05-17T14:56:45.744Z,101121.84
2023-05-17T14:59:14.111Z,101123.70
2023-05-17T15:01:42.588Z,101122.80
2023-05-17T15:04:11.033Z,101126.86
2023-05-17T15:06:39.446Z,101127.67
2023-05-17T15:09:09.931Z,101128.48
2023-05-17T15:11:38.259Z,101129.52
2023-05-17T15:14:06.936Z,101131.17
2023-05-17T15:16:35.253Z,101126.88
2023-05-17T15:19:03.718Z,101122.71
2023-05-17T15:21:32.270Z,101125.74
2023-05-17T15:24:00.543Z,101129.33
2023-05-17T15:26:28.924Z,101127.91
2023-05-17T15:28:57.809Z,101135.94
2023-05-17T15:31:28.650Z,101137.42
2023-05-17T15:33:57.847Z,101143.02
2023-05-17T15:36:26.529Z,101147.56
2023-05-17T15:38:55.013Z,101146.91
2023-05-17T15:41:29.782Z,101150.56
2023-05-17T15:43:59.054Z,101146.56
2023-05-17T15:46:27.922Z,101150.66
2023-05-17T15:48:56.831Z,101152.02
2023-05-17T15:51:25.200Z,101151.23
2023-05-17T15:53:53.770Z,101148.93
2023-05-17T15:56:23.462Z,101147.67
2023-05-17T15:58:52.384Z,101148.39
2023-05-17T16:01:20.846Z,101150.52
2023-05-17T16:03:49.231Z,101158.66
2023-05-17T16:06:17.716Z,101168.09
2023-05-17T16:08:46.180Z,101164.78
2023-05-17T16:11:14.458Z,101167.67
2023-05-17T16:13:43.139Z,101171.09
2023-05-17T16:16:13.666Z,101180.61
2023-05-17T16:18:42.092Z,101183.45
2023-05-17T16:21:10.624Z,101187.31
2023-05-17T16:23:38.902Z,101189.58
2023-05-17T16:26:07.491Z,101189.88
2023-05-17T16:28:37.093Z,101189.98
2023-05-17T16:31:08.130Z,101189.02
2023-05-17T16:33:36.889Z,101192.88
2023-05-17T16:36:05.909Z,101195.45
2023-05-17T16:38:34.187Z,101200.95
2023-05-17T16:41:03.585Z,101204.29
2023-05-17T16:43:31.967Z,101209.40
2023-05-17T16:46:00.551Z,101211.42
2023-05-17T16:48:29.248Z,101211.73
2023-05-17T16:50:59.716Z,101208.49
2023-05-17T16:53:28.538Z,101213.68
2023-05-17T16:55:57.021Z,101215.19
2023-05-17T16:58:26.314Z,101220.58
2023-05-17T17:00:54.606Z,101218.91
2023-05-17T17:03:23.011Z,101223.08
2023-05-17T17:05:51.555Z,101219.36
2023-05-17T17:08:19.828Z,101217.89
2023-05-17T17:10:47.997Z,101216.98
2023-05-17T17:13:16.628Z,101217.04
2023-05-17T17:15:45.079Z,101214.33
2023-05-17T17:18:13.486Z,101214.32
2023-05-17T17:20:41.807Z,101213.06
2023-05-17T17:23:10.197Z,101213.64
2023-05-17T17:25:38.782Z,101217.85
2023-05-17T17:28:07.044Z,101218.66
2023-05-17T17:30:35.420Z,101219.38
2023-05-17T17:33:03.984Z,101223.40
2023-05-17T17:35:32.382Z,101223.23
2023-05-17T17:38:02.420Z,101220.62
2023-05-17T17:40:30.941Z,101215.94
2023-05-17T17:42:59.668Z,101212.08
2023-05-17T17:45:27.837Z,101205.92
2023-05-17T17:47:56.155Z,101209.59
2023-05-17T17:50:24.703Z,101219.93
2023-05-17T17:52:53.092Z,101233.10
2023-05-17T17:55:21.346Z,101236.88
2023-05-17T17:57:51.262Z,101243.61
2023-05-17T18:00:20.046Z,101246.44
2023-05-17T18:02:48.336Z,101247.39
2023-05-17T18:05:16.611Z,101253.65
2023-05-17T18:07:44.874Z,101259.72
2023-05-17T18:10:13.249Z,101263.30
2023-05-17T18:12:41.628Z,101263.94
2023-05-17T18:15:11.595Z,101262.87
2023-05-17T18:17:40.139Z,101260.78
2023-05-17T18:20:09.062Z,101260.07
2023-05-17T18:22:37.386Z,101260.77
2023-05-17T18:25:06.393Z,101264.10
2023-05-17T18:27:35.507Z,101269.67
2023-05-17T18:30:04.672Z,101272.85
2023-05-17T18:32:33.139Z,101279.48
2023-05-17T18:35:01.527Z,101280.46
2023-05-17T18:37:29.798Z,101286.33
2023-05-17T18:40:00.019Z,101294.95
2023-05-17T18:42:29.212Z,101300.80
2023-05-17T18:44:57.487Z,101307.48
2023-05-17T18:47:28.084Z,101311.84
2023-05-17T18:49:56.490Z,101312.52
2023-05-17T18:52:24.672Z,101319.55
2023-05-17T18:54:52.836Z,101320.55
2023-05-17T18:57:21.216Z,101324.63
2023-05-17T18:59:49.342Z,101326.08
2023-05-17T19:02:17.561Z,101327.74
2023-05-17T19:04:45.939Z,101329.31
2023-05-17T19:07:14.314Z,101334.67
2023-05-17T19:09:42.796Z,101334.30
2023-05-17T19:12:11.170Z,101336.40
2023-05-17T19:14:40.476Z,101342.11
2023-05-17T19:17:10.368Z,101343.46
2023-05-17T19:19:38.980Z,101348.42
2023-05-17T19:22:07.658Z,101352.33
2023-05-17T19:24:35.975Z,101359.52
2023-05-17T19:27:05.136Z,101364.61
2023-05-17T19:29:33.391Z,101366.72
2023-05-17T19:32:01.871Z,101373.04
2023-05-17T19:34:30.200Z,101378.30
2023-05-17T19:36:59.041Z,101377.66
2023-05-17T19:39:27.430Z,101376.81
2023-05-17T19:41:56.005Z,101377.20
2023-05-17T19:44:24.175Z,101381.80
2023-05-17T19:46:52.585Z,101380.80
2023-05-17T19:49:21.247Z,101374.72
2023-05-17T19:51:49.813Z,101371.80
2023-05-17T19:54:18.093Z,101375.33
2023-05-17T19:56:46.380Z,101378.52
2023-05-17T19:59:14.741Z,101382.23
2023-05-17T20:01:43.167Z,101383.48
2023-05-17T20:04:11.722Z,101383.02
2023-05-17T20:06:40.712Z,101385.46
2023-05-17T20:09:08.966Z,101391.09
2023-05-17T20:11:37.452Z,101390.96
2023-05-17T20:14:05.821Z,101391.51
2023-05-17T20:16:34.226Z,101397.96
2023-05-17T20:19:02.706Z,101400.60
2023-05-17T20:21:31.669Z,101399.36
2023-05-17T20:24:04.137Z,101396.50
2023-05-17T20:26:37.071Z,101392.95
2023-05-17T20:29:09.724Z,101395.21
2023-05-17T20:31:38.430Z,101393.95
2023-05-17T20:34:06.777Z,101393.59
2023-05-17T20:36:35.141Z,101394.61
2023-05-17T20:39:03.718Z,101397.21
2023-05-17T20:41:31.995Z,101397.21
2023-05-17T20:44:00.370Z,101398.59
2023-05-17T20:46:31.769Z,101394.63
2023-05-17T20:49:01.325Z,101395.67
2023-05-17T20:51:29.862Z,101398.33
2023-05-17T20:53:58.279Z,101400.27
2023-05-17T20:56:26.660Z,101402.90
2023-05-17T20:58:55.036Z,101402.90
2023-05-17T21:01:23.350Z,101401.28
2023-05-17T21:03:51.813Z,101404.19
2023-05-17T21:06:20.492Z,101408.82
2023-05-17T21:08:48.749Z,101405.98
2023-05-17T21:11:21.412Z,101407.83
2023-05-17T21:13:50.808Z,101411.46
2023-05-17T21:16:19.131Z,101412.83
2023-05-17T21:18:47.552Z,101414.03
2023-05-17T21:21:16.276Z,101417.65
2023-05-17T21:23:44.854Z,101415.86
2023-05-17T21:26:13.533Z,101422.81
2023-05-17T21:28:41.706Z,101427.13
2023-05-17T21:31:10.200Z,101435.99
2023-05-17T21:33:38.476Z,101435.42
2023-05-17T21:36:06.944Z,101440.48
2023-05-17T21:38:36.135Z,101447.81
2023-05-17T21:41:04.418Z,101449.77
2023-05-17T21:43:32.691Z,101453.64
2023-05-17T21:46:00.975Z,101454.23
2023-05-17T21:48:29.341Z,101457.14
2023-05-17T21:50:57.816Z,101460.88
2023-05-17T21:53:26.293Z,101464.09
2023-05-17T21:56:01.954Z,101464.33
2023-05-17T21:58:32.318Z,101462.79
2023-05-17T22:01:01.846Z,101461.43
2023-05-17T22:03:30.206Z,101454.50
2023-05-17T22:05:58.734Z,101447.26
2023-05-17T22:08:27.245Z,101438.27
2023-05-17T22:10:55.989Z,101439.52
2023-05-17T22:13:27.038Z,101440.58
2023-05-17T22:15:57.805Z,101448.25
2023-05-17T22:18:27.360Z,101452.27
2023-05-17T22:20:59.568Z,101454.91
2023-05-17T22:23:28.429Z,101451.28
2023-05-17T22:26:00.525Z,101454.10
2023-05-17T22:28:29.086Z,101453.80
2023-05-17T22:30:57.387Z,101453.32
2023-05-17T22:33:27.571Z,101457.02
2023-05-17T22:35:56.359Z,101458.84
2023-05-17T22:38:24.629Z,101463.25
2023-05-17T22:40:52.899Z,101467.10
2023-05-17T22:43:26.198Z,101466.61
2023-05-17T22:45:54.472Z,101457.59
2023-05-17T22:48:22.747Z,101459.33
2023-05-17T22:50:54.817Z,101453.08
2023-05-17T22:53:22.986Z,101456.56
2023-05-17T22:55:52.193Z,101464.38
2023-05-17T22:58:20.760Z,101470.11
2023-05-17T23:00:51.318Z,101468.73
2023-05-17T23:03:20.075Z,101475.48
2023-05-17T23:05:48.460Z,101479.30
2023-05-17T23:08:16.834Z,101484.20
2023-05-17T23:10:45.627Z,101486.83
2023-05-17T23:13:14.196Z,101489.60
2023-05-17T23:15:47.120Z,101497.45
2023-05-17T23:18:16.293Z,101501.46
2023-05-17T23:20:46.543Z,101503.39
2023-05-17T23:23:15.755Z,101505.33
2023-05-17T23:25:48.850Z,101511.77
2023-05-17T23:28:18.800Z,101515.79
2023-05-17T23:30:49.058Z,101517.37
2023-05-17T23:33:19.183Z,101520.66
2023-05-17T23:35:47.411Z,101524.33
2023-05-17T23:38:15.883Z,101523.65
2023-05-17T23:40:44.571Z,101526.46
2023-05-17T23:43:12.870Z,101525.07
2023-05-17T23:45:41.231Z,101526.98
2023-05-17T23:48:10.035Z,101529.04
2023-05-17T23:50:39.408Z,101528.33
2023-05-17T23:53:10.026Z,101530.23
2023-05-17T23:55:38.839Z,101532.48
2023-05-17T23:58:07.315Z,101537.35
